NKS2599 KMCO-KACY
Flight info
| Callsign | NKS2599 |
|---|---|
| Flight time | N/A |
| Altitude | 37000 |
| Route | FATHE4 VIYAP Q87 JROSS Q135 RREGG Q117 SAWED Q97 ZJAAY RADDS SIE ACY |
| Aircraft | A320/M-SDE3FGHIRWY/LB1 |
Departure
| Time | 2026-04-22 10:03 |
|---|---|
| Airport | Orlando International Airport (KMCO) |
Arrival
| Time | N/A |
|---|---|
| Airport | Atlantic City International Airport (KACY) |
| Time | Latitude | Longitude | Altitude | Speed | Heading |
|---|---|---|---|---|---|
| 2026-04-22 09:42 | 28.43589 | -81.31214 | 95 ft | 0 kts | 242° |
| 2026-04-22 09:53 | 28.43594 | -81.31202 | 95 ft | 4 kts | 244° |
| 2026-04-22 09:53 | 28.43604 | -81.31174 | 95 ft | 4 kts | 256° |
| 2026-04-22 09:54 | 28.43607 | -81.31145 | 94 ft | 4 kts | 296° |
| 2026-04-22 09:54 | 28.43601 | -81.31135 | 94 ft | 4 kts | 338° |
| 2026-04-22 09:54 | 28.43626 | -81.31148 | 95 ft | 4 kts | 331° |
| 2026-04-22 09:54 | 28.43635 | -81.31154 | 95 ft | 0 kts | 328° |
| 2026-04-22 09:57 | 28.43640 | -81.31158 | 96 ft | 6 kts | 328° |
| 2026-04-22 09:57 | 28.43718 | -81.31215 | 97 ft | 14 kts | 327° |
| 2026-04-22 09:57 | 28.43782 | -81.31299 | 99 ft | 14 kts | 297° |
| 2026-04-22 09:58 | 28.43805 | -81.31402 | 102 ft | 13 kts | 283° |
| 2026-04-22 09:58 | 28.43833 | -81.31502 | 105 ft | 13 kts | 289° |
| 2026-04-22 09:58 | 28.43849 | -81.31609 | 107 ft | 15 kts | 274° |
| 2026-04-22 09:58 | 28.43850 | -81.31744 | 100 ft | 21 kts | 269° |
| 2026-04-22 09:59 | 28.43786 | -81.31847 | 99 ft | 18 kts | 186° |
| 2026-04-22 09:59 | 28.43651 | -81.31845 | 99 ft | 21 kts | 179° |
| 2026-04-22 09:59 | 28.43497 | -81.31844 | 98 ft | 23 kts | 179° |
| 2026-04-22 09:59 | 28.43326 | -81.31843 | 98 ft | 26 kts | 180° |
| 2026-04-22 10:00 | 28.43139 | -81.31842 | 98 ft | 28 kts | 179° |
| 2026-04-22 10:00 | 28.42938 | -81.31839 | 100 ft | 30 kts | 179° |
| 2026-04-22 10:00 | 28.42731 | -81.31835 | 101 ft | 30 kts | 180° |
| 2026-04-22 10:00 | 28.42522 | -81.31834 | 101 ft | 31 kts | 179° |
| 2026-04-22 10:01 | 28.42299 | -81.31834 | 101 ft | 33 kts | 182° |
| 2026-04-22 10:01 | 28.42066 | -81.31879 | 99 ft | 35 kts | 180° |
| 2026-04-22 10:01 | 28.41819 | -81.31877 | 98 ft | 36 kts | 179° |
| 2026-04-22 10:01 | 28.41592 | -81.31879 | 98 ft | 20 kts | 184° |
| 2026-04-22 10:02 | 28.41541 | -81.32006 | 97 ft | 20 kts | 268° |
| 2026-04-22 10:02 | 28.41546 | -81.32156 | 97 ft | 11 kts | 282° |
| 2026-04-22 10:02 | 28.41614 | -81.32198 | 98 ft | 16 kts | 0° |
| 2026-04-22 10:02 | 28.41977 | -81.32202 | 99 ft | 88 kts | 359° |
| 2026-04-22 10:03 | 28.42785 | -81.32211 | 101 ft | 141 kts | 359° |
| 2026-04-22 10:03 | 28.43891 | -81.32228 | 300 ft | 167 kts | 359° |
| 2026-04-22 10:03 | 28.45075 | -81.32263 | 831 ft | 174 kts | 360° |
| 2026-04-22 10:03 | 28.46313 | -81.32283 | 1431 ft | 181 kts | 4° |
| 2026-04-22 10:04 | 28.47598 | -81.32277 | 2020 ft | 187 kts | 5° |
| 2026-04-22 10:04 | 28.48937 | -81.32267 | 2347 ft | 206 kts | 5° |
| 2026-04-22 10:04 | 28.50447 | -81.32262 | 2642 ft | 229 kts | 4° |
| 2026-04-22 10:04 | 28.52103 | -81.32263 | 3267 ft | 242 kts | 3° |
| 2026-04-22 10:05 | 28.53803 | -81.32284 | 4177 ft | 246 kts | 3° |
| 2026-04-22 10:05 | 28.55517 | -81.32251 | 5073 ft | 251 kts | 8° |
| 2026-04-22 10:05 | 28.57321 | -81.32097 | 5714 ft | 265 kts | 8° |
| 2026-04-22 10:05 | 28.59184 | -81.31929 | 6586 ft | 271 kts | 7° |
| 2026-04-22 10:06 | 28.61070 | -81.31759 | 6898 ft | 272 kts | 7° |
| 2026-04-22 10:06 | 28.62961 | -81.31584 | 7027 ft | 274 kts | 7° |
| 2026-04-22 10:06 | 28.64875 | -81.31358 | 7821 ft | 276 kts | 8° |
| 2026-04-22 10:06 | 28.66796 | -81.31108 | 8720 ft | 280 kts | 8° |
| 2026-04-22 10:07 | 28.68749 | -81.30847 | 9556 ft | 285 kts | 8° |
| 2026-04-22 10:07 | 28.70743 | -81.30577 | 10293 ft | 295 kts | 8° |
| 2026-04-22 10:07 | 28.72861 | -81.30291 | 10573 ft | 318 kts | 8° |
| 2026-04-22 10:07 | 28.75142 | -81.29988 | 10795 ft | 342 kts | 7° |
| 2026-04-22 10:08 | 28.77559 | -81.29670 | 11211 ft | 355 kts | 7° |
| 2026-04-22 10:08 | 28.79195 | -81.29458 | 11631 ft | 359 kts | 7° |
| 2026-04-22 10:08 | 28.81698 | -81.29135 | 12306 ft | 364 kts | 7° |
| 2026-04-22 10:08 | 28.84237 | -81.28892 | 12970 ft | 369 kts | 0° |
| 2026-04-22 10:09 | 28.87661 | -81.29136 | 13873 ft | 374 kts | 355° |
| 2026-04-22 10:09 | 28.90272 | -81.29367 | 14500 ft | 378 kts | 355° |
| 2026-04-22 10:09 | 28.92911 | -81.29597 | 15111 ft | 382 kts | 355° |
| 2026-04-22 10:09 | 28.95571 | -81.29826 | 15704 ft | 385 kts | 355° |
| 2026-04-22 10:10 | 28.97384 | -81.29981 | 16104 ft | 387 kts | 354° |
| 2026-04-22 10:10 | 29.00083 | -81.30212 | 16708 ft | 390 kts | 354° |
| 2026-04-22 10:10 | 29.02764 | -81.30476 | 17308 ft | 393 kts | 353° |
| 2026-04-22 10:10 | 29.05497 | -81.30781 | 17911 ft | 396 kts | 352° |
| 2026-04-22 10:11 | 29.08253 | -81.31103 | 18524 ft | 399 kts | 352° |
| 2026-04-22 10:11 | 29.11030 | -81.31429 | 19065 ft | 403 kts | 352° |
| 2026-04-22 10:11 | 29.13835 | -81.31690 | 19631 ft | 405 kts | 354° |
| 2026-04-22 10:11 | 29.16656 | -81.31877 | 20211 ft | 408 kts | 354° |
| 2026-04-22 10:12 | 29.19502 | -81.32022 | 20779 ft | 410 kts | 355° |
| 2026-04-22 10:12 | 29.22360 | -81.32153 | 21332 ft | 412 kts | 354° |
| 2026-04-22 10:12 | 29.25233 | -81.32292 | 21859 ft | 414 kts | 354° |
| 2026-04-22 10:12 | 29.28117 | -81.32446 | 22372 ft | 416 kts | 354° |
| 2026-04-22 10:13 | 29.31017 | -81.32614 | 22879 ft | 418 kts | 353° |
| 2026-04-22 10:13 | 29.33929 | -81.32792 | 23382 ft | 420 kts | 353° |
| 2026-04-22 10:13 | 29.36855 | -81.32974 | 23868 ft | 422 kts | 353° |
| 2026-04-22 10:13 | 29.39801 | -81.33158 | 24271 ft | 425 kts | 353° |
| 2026-04-22 10:14 | 29.42764 | -81.33341 | 24672 ft | 427 kts | 353° |
| 2026-04-22 10:14 | 29.45737 | -81.33522 | 25055 ft | 429 kts | 352° |
| 2026-04-22 10:14 | 29.48726 | -81.33701 | 25427 ft | 431 kts | 352° |
| 2026-04-22 10:14 | 29.51729 | -81.33880 | 25803 ft | 434 kts | 352° |
| 2026-04-22 10:15 | 29.54754 | -81.34064 | 26183 ft | 436 kts | 352° |
| 2026-04-22 10:15 | 29.57752 | -81.34249 | 26578 ft | 438 kts | 352° |
| 2026-04-22 10:15 | 29.60806 | -81.34436 | 26955 ft | 441 kts | 352° |
| 2026-04-22 10:15 | 29.63878 | -81.34621 | 27336 ft | 443 kts | 352° |
| 2026-04-22 10:16 | 29.66968 | -81.34802 | 27704 ft | 446 kts | 352° |
| 2026-04-22 10:16 | 29.70074 | -81.34978 | 28084 ft | 448 kts | 352° |
| 2026-04-22 10:16 | 29.73192 | -81.35153 | 28457 ft | 450 kts | 352° |
| 2026-04-22 10:16 | 29.76334 | -81.35330 | 28829 ft | 453 kts | 352° |
| 2026-04-22 10:17 | 29.79492 | -81.35510 | 29193 ft | 455 kts | 352° |
| 2026-04-22 10:17 | 29.82656 | -81.35690 | 29644 ft | 455 kts | 352° |
| 2026-04-22 10:17 | 29.85823 | -81.35870 | 30215 ft | 453 kts | 351° |
| 2026-04-22 10:17 | 29.88966 | -81.36049 | 30708 ft | 451 kts | 351° |
| 2026-04-22 10:18 | 29.92097 | -81.36229 | 31198 ft | 449 kts | 351° |
| 2026-04-22 10:18 | 29.95212 | -81.36409 | 31707 ft | 447 kts | 351° |
| 2026-04-22 10:18 | 29.98272 | -81.36585 | 32205 ft | 445 kts | 351° |
| 2026-04-22 10:18 | 30.01358 | -81.36762 | 32717 ft | 442 kts | 351° |
| 2026-04-22 10:19 | 30.04425 | -81.36936 | 33227 ft | 440 kts | 351° |
| 2026-04-22 10:19 | 30.07479 | -81.37112 | 33749 ft | 438 kts | 350° |
| 2026-04-22 10:19 | 30.10513 | -81.37288 | 34262 ft | 436 kts | 350° |
| 2026-04-22 10:19 | 30.13534 | -81.37464 | 34698 ft | 434 kts | 350° |
| 2026-04-22 10:20 | 30.16545 | -81.37641 | 35124 ft | 432 kts | 350° |
| 2026-04-22 10:20 | 30.19545 | -81.37814 | 35535 ft | 431 kts | 349° |
| 2026-04-22 10:20 | 30.22531 | -81.37985 | 35931 ft | 429 kts | 349° |
| 2026-04-22 10:20 | 30.25512 | -81.38154 | 36323 ft | 428 kts | 349° |
| 2026-04-22 10:21 | 30.28484 | -81.38326 | 36706 ft | 427 kts | 349° |
| 2026-04-22 10:21 | 30.31453 | -81.38501 | 37080 ft | 425 kts | 349° |
| 2026-04-22 10:21 | 30.34413 | -81.38676 | 37260 ft | 426 kts | 348° |
| 2026-04-22 10:21 | 30.37345 | -81.38849 | 37288 ft | 427 kts | 348° |
| 2026-04-22 10:22 | 30.43278 | -81.39191 | 37286 ft | 427 kts | 348° |
| 2026-04-22 10:22 | 30.49219 | -81.39522 | 37285 ft | 427 kts | 349° |
| 2026-04-22 10:23 | 30.55148 | -81.39835 | 37294 ft | 427 kts | 349° |
| 2026-04-22 10:23 | 30.61085 | -81.40144 | 37299 ft | 427 kts | 349° |
| 2026-04-22 10:24 | 30.67022 | -81.40449 | 37312 ft | 427 kts | 349° |
| 2026-04-22 10:24 | 30.72954 | -81.40764 | 37314 ft | 427 kts | 349° |
| 2026-04-22 10:25 | 30.78893 | -81.41080 | 37307 ft | 427 kts | 349° |
| 2026-04-22 10:25 | 30.84786 | -81.41394 | 37306 ft | 427 kts | 349° |
| 2026-04-22 10:26 | 30.90754 | -81.41711 | 37300 ft | 426 kts | 348° |
| 2026-04-22 10:26 | 30.96644 | -81.42027 | 37299 ft | 426 kts | 348° |
| 2026-04-22 10:27 | 31.02568 | -81.42349 | 37299 ft | 426 kts | 348° |
| 2026-04-22 10:27 | 31.08491 | -81.42669 | 37304 ft | 426 kts | 348° |
| 2026-04-22 10:28 | 31.14412 | -81.42986 | 37301 ft | 425 kts | 348° |
| 2026-04-22 10:28 | 31.20319 | -81.43300 | 37303 ft | 425 kts | 348° |
| 2026-04-22 10:29 | 31.26295 | -81.42709 | 37325 ft | 445 kts | 7° |
| 2026-04-22 10:29 | 31.29236 | -81.41425 | 37326 ft | 457 kts | 15° |
| 2026-04-22 10:29 | 31.32118 | -81.39859 | 37327 ft | 457 kts | 15° |
| 2026-04-22 10:30 | 31.37890 | -81.36713 | 37321 ft | 457 kts | 15° |
| 2026-04-22 10:30 | 31.43666 | -81.33570 | 37317 ft | 457 kts | 15° |
| 2026-04-22 10:31 | 31.49427 | -81.30441 | 37311 ft | 456 kts | 15° |
| 2026-04-22 10:31 | 31.55186 | -81.27318 | 37307 ft | 456 kts | 15° |
| 2026-04-22 10:32 | 31.60906 | -81.24206 | 37302 ft | 455 kts | 15° |
| 2026-04-22 10:32 | 31.66660 | -81.21060 | 37299 ft | 455 kts | 15° |
| 2026-04-22 10:33 | 31.72395 | -81.17916 | 37293 ft | 454 kts | 15° |
| 2026-04-22 10:33 | 31.78126 | -81.14782 | 37290 ft | 454 kts | 15° |
| 2026-04-22 10:34 | 31.83849 | -81.11651 | 37289 ft | 453 kts | 15° |
| 2026-04-22 10:34 | 31.89563 | -81.08517 | 37287 ft | 453 kts | 15° |
| 2026-04-22 10:35 | 31.95268 | -81.05382 | 37285 ft | 452 kts | 15° |
| 2026-04-22 10:35 | 32.00974 | -81.02242 | 37289 ft | 452 kts | 16° |
| 2026-04-22 10:36 | 32.06626 | -80.99100 | 37288 ft | 452 kts | 16° |
| 2026-04-22 10:36 | 32.12299 | -80.95914 | 37291 ft | 451 kts | 16° |
| 2026-04-22 10:37 | 32.20808 | -80.91130 | 37330 ft | 451 kts | 16° |
| 2026-04-22 10:38 | 32.26472 | -80.87953 | 37332 ft | 450 kts | 16° |
| 2026-04-22 10:38 | 32.32135 | -80.84773 | 37333 ft | 450 kts | 16° |
| 2026-04-22 10:39 | 32.37791 | -80.81580 | 37323 ft | 450 kts | 16° |
| 2026-04-22 10:39 | 32.43446 | -80.78387 | 37323 ft | 450 kts | 16° |
| 2026-04-22 10:40 | 32.49093 | -80.75200 | 37325 ft | 449 kts | 16° |
| 2026-04-22 10:40 | 32.54736 | -80.72008 | 37324 ft | 449 kts | 16° |
| 2026-04-22 10:41 | 32.60373 | -80.68820 | 37324 ft | 448 kts | 16° |
| 2026-04-22 10:41 | 32.65967 | -80.65654 | 37322 ft | 448 kts | 16° |
| 2026-04-22 10:42 | 32.71402 | -80.61898 | 37329 ft | 464 kts | 31° |
| 2026-04-22 10:42 | 32.73751 | -80.59199 | 37326 ft | 475 kts | 40° |
| 2026-04-22 10:42 | 32.75933 | -80.56242 | 37336 ft | 476 kts | 40° |
| 2026-04-22 10:43 | 32.80290 | -80.50327 | 37332 ft | 475 kts | 40° |
| 2026-04-22 10:43 | 32.84646 | -80.44411 | 37338 ft | 475 kts | 40° |
| 2026-04-22 10:44 | 32.89003 | -80.38504 | 37320 ft | 474 kts | 40° |
| 2026-04-22 10:44 | 32.93346 | -80.32604 | 37324 ft | 474 kts | 40° |
| 2026-04-22 10:45 | 32.97677 | -80.26694 | 37326 ft | 473 kts | 40° |
| 2026-04-22 10:45 | 33.02013 | -80.20787 | 37330 ft | 472 kts | 40° |
| 2026-04-22 10:46 | 33.06309 | -80.14930 | 37325 ft | 472 kts | 40° |
| 2026-04-22 10:46 | 33.10627 | -80.09022 | 37332 ft | 472 kts | 40° |
| 2026-04-22 10:47 | 33.14927 | -80.03119 | 37331 ft | 471 kts | 40° |
| 2026-04-22 10:47 | 33.19229 | -79.97208 | 37337 ft | 471 kts | 40° |
| 2026-04-22 10:48 | 33.23522 | -79.91306 | 37332 ft | 470 kts | 40° |
| 2026-04-22 10:48 | 33.27810 | -79.85393 | 37260 ft | 470 kts | 41° |
| 2026-04-22 10:49 | 33.32100 | -79.79467 | 37276 ft | 473 kts | 42° |
| 2026-04-22 10:49 | 33.36393 | -79.73532 | 37269 ft | 476 kts | 42° |
| 2026-04-22 10:50 | 33.40733 | -79.67535 | 37292 ft | 478 kts | 42° |
| 2026-04-22 10:50 | 33.45082 | -79.61512 | 37292 ft | 479 kts | 42° |
| 2026-04-22 10:51 | 33.49438 | -79.55460 | 37310 ft | 480 kts | 43° |
| 2026-04-22 10:51 | 33.53793 | -79.49398 | 37313 ft | 480 kts | 43° |
| 2026-04-22 10:52 | 33.58148 | -79.43324 | 37307 ft | 480 kts | 43° |
| 2026-04-22 10:52 | 33.62508 | -79.37240 | 37310 ft | 481 kts | 43° |
| 2026-04-22 10:53 | 33.66865 | -79.31157 | 37320 ft | 481 kts | 43° |
| 2026-04-22 10:53 | 33.71219 | -79.25061 | 37327 ft | 481 kts | 43° |
| 2026-04-22 10:54 | 33.75568 | -79.18957 | 37332 ft | 481 kts | 43° |
| 2026-04-22 10:54 | 33.79181 | -79.13883 | 37333 ft | 480 kts | 43° |
| 2026-04-22 10:55 | 33.83532 | -79.07779 | 37333 ft | 480 kts | 43° |
| 2026-04-22 10:55 | 33.87873 | -79.01662 | 37335 ft | 480 kts | 43° |
| 2026-04-22 10:56 | 33.92209 | -78.95541 | 37330 ft | 480 kts | 43° |
| 2026-04-22 10:56 | 33.96556 | -78.89415 | 37324 ft | 480 kts | 43° |
| 2026-04-22 10:57 | 34.00892 | -78.83283 | 37317 ft | 480 kts | 43° |
| 2026-04-22 10:57 | 34.05218 | -78.77142 | 37324 ft | 480 kts | 43° |
| 2026-04-22 10:58 | 34.09548 | -78.71000 | 37327 ft | 480 kts | 43° |
| 2026-04-22 10:58 | 34.13875 | -78.64852 | 37325 ft | 480 kts | 43° |
| 2026-04-22 10:59 | 34.18166 | -78.58736 | 37322 ft | 480 kts | 43° |
| 2026-04-22 10:59 | 34.22482 | -78.52572 | 37321 ft | 481 kts | 43° |
| 2026-04-22 11:00 | 34.27042 | -78.46745 | 37321 ft | 471 kts | 34° |
| 2026-04-22 11:00 | 34.31976 | -78.41503 | 37325 ft | 472 kts | 34° |
| 2026-04-22 11:01 | 34.36906 | -78.36235 | 37316 ft | 472 kts | 34° |
| 2026-04-22 11:01 | 34.41829 | -78.30962 | 37317 ft | 472 kts | 34° |
| 2026-04-22 11:02 | 34.46727 | -78.25713 | 37323 ft | 472 kts | 34° |
| 2026-04-22 11:02 | 34.51648 | -78.20430 | 37325 ft | 472 kts | 34° |
| 2026-04-22 11:03 | 34.56564 | -78.15144 | 37326 ft | 471 kts | 34° |
| 2026-04-22 11:03 | 34.61470 | -78.09864 | 37326 ft | 471 kts | 34° |
| 2026-04-22 11:04 | 34.66367 | -78.04578 | 37330 ft | 471 kts | 34° |
| 2026-04-22 11:04 | 34.71233 | -77.99315 | 37332 ft | 471 kts | 34° |
| 2026-04-22 11:05 | 34.76127 | -77.94016 | 37335 ft | 470 kts | 34° |
| 2026-04-22 11:05 | 34.81013 | -77.88727 | 37329 ft | 470 kts | 35° |
| 2026-04-22 11:06 | 34.85897 | -77.83428 | 37331 ft | 470 kts | 35° |
| 2026-04-22 11:06 | 34.90807 | -77.78183 | 37338 ft | 468 kts | 33° |
| 2026-04-22 11:07 | 34.95783 | -77.73078 | 37338 ft | 467 kts | 33° |
| 2026-04-22 11:07 | 35.00770 | -77.67988 | 37335 ft | 467 kts | 33° |
| 2026-04-22 11:08 | 35.05727 | -77.62853 | 37333 ft | 467 kts | 34° |
| 2026-04-22 11:08 | 35.10638 | -77.57731 | 37329 ft | 467 kts | 34° |
| 2026-04-22 11:09 | 35.15754 | -77.52944 | 37328 ft | 457 kts | 24° |
| 2026-04-22 11:09 | 35.21197 | -77.48894 | 37330 ft | 458 kts | 25° |
| 2026-04-22 11:10 | 35.26630 | -77.44836 | 37330 ft | 457 kts | 25° |
| 2026-04-22 11:10 | 35.32060 | -77.40761 | 37327 ft | 457 kts | 25° |
| 2026-04-22 11:11 | 35.37486 | -77.36686 | 37322 ft | 457 kts | 25° |
| 2026-04-22 11:11 | 35.42907 | -77.32614 | 37308 ft | 457 kts | 25° |
| 2026-04-22 11:12 | 35.48293 | -77.28561 | 37309 ft | 457 kts | 25° |
| 2026-04-22 11:12 | 35.53711 | -77.24486 | 37309 ft | 456 kts | 25° |
| 2026-04-22 11:13 | 35.59123 | -77.20400 | 37331 ft | 456 kts | 25° |
| 2026-04-22 11:13 | 35.64529 | -77.16319 | 37328 ft | 456 kts | 25° |
| 2026-04-22 11:14 | 35.69939 | -77.12229 | 37323 ft | 455 kts | 25° |
| 2026-04-22 11:14 | 35.75341 | -77.08141 | 37308 ft | 455 kts | 25° |
| 2026-04-22 11:15 | 35.80707 | -77.04084 | 37308 ft | 455 kts | 25° |
| 2026-04-22 11:15 | 35.86102 | -77.00000 | 37310 ft | 455 kts | 25° |
| 2026-04-22 11:16 | 35.91488 | -76.95901 | 37306 ft | 455 kts | 25° |
| 2026-04-22 11:16 | 35.96969 | -76.92041 | 37304 ft | 452 kts | 22° |
| 2026-04-22 11:17 | 36.02538 | -76.88456 | 37311 ft | 451 kts | 21° |
| 2026-04-22 11:17 | 36.08099 | -76.84867 | 37308 ft | 451 kts | 22° |
| 2026-04-22 11:18 | 36.13632 | -76.81185 | 37301 ft | 451 kts | 22° |
| 2026-04-22 11:18 | 36.19152 | -76.77472 | 37296 ft | 451 kts | 22° |
| 2026-04-22 11:19 | 36.24633 | -76.73788 | 37286 ft | 451 kts | 22° |
| 2026-04-22 11:19 | 36.30147 | -76.70075 | 37282 ft | 451 kts | 22° |
| 2026-04-22 11:20 | 36.35661 | -76.66366 | 37279 ft | 450 kts | 22° |
| 2026-04-22 11:20 | 36.41178 | -76.62662 | 37277 ft | 450 kts | 22° |
| 2026-04-22 11:21 | 36.46685 | -76.58956 | 37273 ft | 450 kts | 23° |
| 2026-04-22 11:21 | 36.52198 | -76.55235 | 37272 ft | 451 kts | 23° |
| 2026-04-22 11:22 | 36.57711 | -76.51501 | 37276 ft | 451 kts | 23° |
| 2026-04-22 11:22 | 36.63220 | -76.47765 | 37275 ft | 451 kts | 23° |
| 2026-04-22 11:23 | 36.68699 | -76.44053 | 37269 ft | 451 kts | 23° |
| 2026-04-22 11:23 | 36.74209 | -76.40311 | 37264 ft | 451 kts | 23° |
| 2026-04-22 11:24 | 36.79724 | -76.36560 | 37267 ft | 451 kts | 23° |
| 2026-04-22 11:24 | 36.85227 | -76.32799 | 37256 ft | 451 kts | 23° |
| 2026-04-22 11:25 | 36.90729 | -76.29038 | 37257 ft | 451 kts | 23° |
| 2026-04-22 11:25 | 36.96230 | -76.25272 | 37254 ft | 450 kts | 23° |
| 2026-04-22 11:26 | 37.01730 | -76.21501 | 37249 ft | 450 kts | 23° |
| 2026-04-22 11:26 | 37.07229 | -76.17726 | 37225 ft | 451 kts | 23° |
| 2026-04-22 11:27 | 37.12690 | -76.13967 | 37227 ft | 451 kts | 23° |
| 2026-04-22 11:27 | 37.18194 | -76.10178 | 37224 ft | 451 kts | 23° |
| 2026-04-22 11:28 | 37.23703 | -76.06385 | 37224 ft | 451 kts | 23° |
| 2026-04-22 11:28 | 37.29206 | -76.02591 | 37221 ft | 451 kts | 23° |
| 2026-04-22 11:29 | 37.34702 | -75.98785 | 37221 ft | 451 kts | 23° |
| 2026-04-22 11:29 | 37.40207 | -75.94965 | 37218 ft | 451 kts | 23° |
| 2026-04-22 11:30 | 37.45703 | -75.91144 | 37214 ft | 451 kts | 23° |
| 2026-04-22 11:30 | 37.51160 | -75.87332 | 37215 ft | 451 kts | 23° |
| 2026-04-22 11:31 | 37.56645 | -75.83446 | 37212 ft | 452 kts | 25° |
| 2026-04-22 11:31 | 37.62053 | -75.79389 | 37208 ft | 452 kts | 26° |
| 2026-04-22 11:32 | 37.67444 | -75.75276 | 37206 ft | 452 kts | 25° |
| 2026-04-22 11:32 | 37.72841 | -75.71193 | 37203 ft | 452 kts | 25° |
| 2026-04-22 11:33 | 37.78241 | -75.67135 | 37219 ft | 451 kts | 25° |
| 2026-04-22 11:33 | 37.83640 | -75.63076 | 37222 ft | 451 kts | 25° |
| 2026-04-22 11:34 | 37.88937 | -75.58773 | 37220 ft | 454 kts | 29° |
| 2026-04-22 11:34 | 37.94071 | -75.54189 | 37224 ft | 454 kts | 30° |
| 2026-04-22 11:35 | 37.99228 | -75.49560 | 37228 ft | 453 kts | 29° |
| 2026-04-22 11:35 | 38.04417 | -75.45020 | 37226 ft | 451 kts | 26° |
| 2026-04-22 11:36 | 38.09977 | -75.41531 | 37219 ft | 445 kts | 19° |
| 2026-04-22 11:36 | 38.15593 | -75.38229 | 37200 ft | 445 kts | 19° |
| 2026-04-22 11:37 | 38.21191 | -75.34899 | 37202 ft | 444 kts | 19° |
| 2026-04-22 11:37 | 38.25843 | -75.32127 | 37215 ft | 443 kts | 19° |
| 2026-04-22 11:38 | 38.31433 | -75.28805 | 37218 ft | 443 kts | 19° |
| 2026-04-22 11:38 | 38.39812 | -75.23830 | 37218 ft | 443 kts | 19° |
| 2026-04-22 11:39 | 38.45405 | -75.20495 | 37215 ft | 443 kts | 19° |
| 2026-04-22 11:39 | 38.50980 | -75.17169 | 37209 ft | 442 kts | 19° |
| 2026-04-22 11:40 | 38.56555 | -75.13838 | 37192 ft | 442 kts | 19° |
| 2026-04-22 11:40 | 38.62126 | -75.10494 | 37188 ft | 442 kts | 20° |
| 2026-04-22 11:41 | 38.67658 | -75.07128 | 37188 ft | 443 kts | 20° |
| 2026-04-22 11:41 | 38.73178 | -75.03584 | 37196 ft | 444 kts | 21° |
| 2026-04-22 11:42 | 38.78688 | -74.99992 | 37218 ft | 444 kts | 21° |
| 2026-04-22 11:42 | 38.84210 | -74.96418 | 37226 ft | 444 kts | 21° |
| 2026-04-22 11:43 | 38.89736 | -74.92864 | 37233 ft | 444 kts | 21° |
| 2026-04-22 11:43 | 38.95221 | -74.89328 | 37236 ft | 444 kts | 21° |
| 2026-04-22 11:44 | 39.00743 | -74.85753 | 37235 ft | 444 kts | 21° |
| 2026-04-22 11:44 | 39.06268 | -74.82169 | 37235 ft | 444 kts | 21° |
| 2026-04-22 11:45 | 39.10855 | -74.79192 | 37232 ft | 444 kts | 21° |
| 2026-04-22 11:45 | 39.15301 | -74.76404 | 37228 ft | 443 kts | 20° |
| 2026-04-22 11:46 | 39.20880 | -74.73007 | 37229 ft | 443 kts | 20° |
| 2026-04-22 11:46 | 39.26453 | -74.69591 | 37231 ft | 443 kts | 20° |
| 2026-04-22 11:47 | 39.32004 | -74.66141 | 37239 ft | 443 kts | 20° |
| 2026-04-22 11:47 | 39.37546 | -74.62673 | 37246 ft | 442 kts | 20° |
| 2026-04-22 11:48 | 39.43099 | -74.59274 | 37241 ft | 437 kts | 13° |
| 2026-04-22 11:48 | 39.46019 | -74.58611 | 37245 ft | 420 kts | 352° |
| 2026-04-22 11:48 | 39.48828 | -74.59350 | 37233 ft | 408 kts | 335° |
| 2026-04-22 11:49 | 39.51304 | -74.60977 | 37223 ft | 403 kts | 324° |
| 2026-04-22 11:49 | 39.53571 | -74.63105 | 37213 ft | 402 kts | 319° |
| 2026-04-22 11:49 | 39.57903 | -74.67698 | 37205 ft | 403 kts | 320° |
| 2026-04-22 11:50 | 39.62443 | -74.71972 | 37205 ft | 404 kts | 324° |
| 2026-04-22 11:50 | 39.64762 | -74.73940 | 37196 ft | 392 kts | 324° |
| 2026-04-22 11:50 | 39.66740 | -74.76237 | 37199 ft | 374 kts | 304° |
| 2026-04-22 11:51 | 39.67782 | -74.79243 | 37181 ft | 363 kts | 282° |
| 2026-04-22 11:51 | 39.67713 | -74.82472 | 37175 ft | 360 kts | 258° |
| 2026-04-22 11:51 | 39.66581 | -74.85380 | 37178 ft | 369 kts | 235° |
| 2026-04-22 11:51 | 39.64545 | -74.87486 | 37177 ft | 386 kts | 211° |
| 2026-04-22 11:52 | 39.61899 | -74.88367 | 37189 ft | 405 kts | 186° |
| 2026-04-22 11:52 | 39.59083 | -74.87806 | 37194 ft | 419 kts | 161° |
| 2026-04-22 11:52 | 39.56577 | -74.85838 | 37196 ft | 426 kts | 136° |
| 2026-04-22 11:52 | 39.54742 | -74.82830 | 37199 ft | 428 kts | 118° |
| 2026-04-22 11:53 | 39.52454 | -74.75709 | 37203 ft | 429 kts | 107° |
| 2026-04-22 11:53 | 39.50322 | -74.68473 | 37211 ft | 431 kts | 112° |
| 2026-04-22 11:54 | 39.47654 | -74.61526 | 37210 ft | 431 kts | 118° |
| 2026-04-22 11:54 | 39.45095 | -74.54557 | 37209 ft | 426 kts | 97° |
| 2026-04-22 11:55 | 39.44962 | -74.50779 | 37211 ft | 417 kts | 78° |
| 2026-04-22 11:55 | 39.45534 | -74.47129 | 37210 ft | 412 kts | 68° |
| 2026-04-22 11:55 | 39.47398 | -74.40190 | 37210 ft | 411 kts | 65° |
| 2026-04-22 11:56 | 39.49069 | -74.33073 | 37206 ft | 415 kts | 71° |
| 2026-04-22 11:56 | 39.50313 | -74.25749 | 37204 ft | 417 kts | 74° |
| 2026-04-22 11:57 | 39.52190 | -74.18822 | 37197 ft | 399 kts | 47° |
| 2026-04-22 11:57 | 39.54052 | -74.16256 | 37194 ft | 385 kts | 29° |
| 2026-04-22 11:57 | 39.56328 | -74.14569 | 37195 ft | 372 kts | 13° |
| 2026-04-22 11:58 | 39.58765 | -74.13754 | 37195 ft | 362 kts | 359° |
| 2026-04-22 11:58 | 39.61241 | -74.13745 | 37193 ft | 353 kts | 346° |
| 2026-04-22 11:58 | 39.63593 | -74.14497 | 37197 ft | 346 kts | 334° |
| 2026-04-22 11:58 | 39.65702 | -74.15942 | 37197 ft | 341 kts | 321° |
| 2026-04-22 11:59 | 39.67451 | -74.17978 | 37197 ft | 338 kts | 309° |
| 2026-04-22 11:59 | 39.68773 | -74.20488 | 37201 ft | 337 kts | 297° |
| 2026-04-22 11:59 | 39.69606 | -74.23337 | 37201 ft | 339 kts | 285° |
| 2026-04-22 11:59 | 39.69895 | -74.26398 | 37199 ft | 344 kts | 272° |
| 2026-04-22 12:00 | 39.69595 | -74.29504 | 37200 ft | 351 kts | 259° |
| 2026-04-22 12:00 | 39.68699 | -74.32483 | 37201 ft | 359 kts | 246° |
| 2026-04-22 12:00 | 39.67222 | -74.35151 | 37201 ft | 370 kts | 232° |
| 2026-04-22 12:00 | 39.65201 | -74.37291 | 37193 ft | 383 kts | 217° |
| 2026-04-22 12:01 | 39.62728 | -74.38695 | 37194 ft | 395 kts | 201° |
| 2026-04-22 12:01 | 39.60023 | -74.39485 | 37192 ft | 400 kts | 197° |
| 2026-04-22 12:01 | 39.54472 | -74.40511 | 37192 ft | 404 kts | 194° |
| 2026-04-22 12:02 | 39.51815 | -74.41315 | 37188 ft | 392 kts | 209° |
| 2026-04-22 12:02 | 39.49481 | -74.42997 | 37194 ft | 377 kts | 226° |
| 2026-04-22 12:02 | 39.47700 | -74.45399 | 37194 ft | 365 kts | 242° |
| 2026-04-22 12:02 | 39.46530 | -74.48250 | 37192 ft | 355 kts | 256° |
| 2026-04-22 12:03 | 39.46181 | -74.51319 | 37188 ft | 341 kts | 281° |
| 2026-04-22 12:03 | 39.46941 | -74.54153 | 37191 ft | 334 kts | 306° |
| 2026-04-22 12:03 | 39.48638 | -74.56179 | 37194 ft | 338 kts | 331° |
| 2026-04-22 12:03 | 39.50928 | -74.56966 | 37191 ft | 350 kts | 356° |
| 2026-04-22 12:04 | 39.53355 | -74.56303 | 37194 ft | 369 kts | 20° |
| 2026-04-22 12:04 | 39.55494 | -74.54362 | 37198 ft | 385 kts | 38° |
| 2026-04-22 12:04 | 39.57255 | -74.51691 | 37194 ft | 396 kts | 50° |
| 2026-04-22 12:04 | 39.58629 | -74.48550 | 37193 ft | 405 kts | 61° |
| 2026-04-22 12:05 | 39.60572 | -74.41634 | 37194 ft | 410 kts | 65° |
| 2026-04-22 12:05 | 39.62361 | -74.34598 | 37195 ft | 411 kts | 67° |
| 2026-04-22 12:06 | 39.63935 | -74.27448 | 37190 ft | 416 kts | 78° |
| 2026-04-22 12:06 | 39.63843 | -74.23730 | 37196 ft | 424 kts | 103° |
| 2026-04-22 12:06 | 39.62651 | -74.20240 | 37193 ft | 426 kts | 128° |
| 2026-04-22 12:07 | 39.60542 | -74.17597 | 37192 ft | 421 kts | 153° |
| 2026-04-22 12:07 | 39.57868 | -74.16220 | 37188 ft | 410 kts | 178° |
| 2026-04-22 12:07 | 39.55091 | -74.16299 | 37188 ft | 392 kts | 202° |
| 2026-04-22 12:07 | 39.52702 | -74.17750 | 37190 ft | 372 kts | 227° |
| 2026-04-22 12:08 | 39.51103 | -74.20240 | 37190 ft | 353 kts | 252° |
| 2026-04-22 12:08 | 39.50417 | -74.23233 | 37200 ft | 347 kts | 263° |
| 2026-04-22 12:08 | 39.49489 | -74.29384 | 37192 ft | 349 kts | 264° |
| 2026-04-22 12:09 | 39.48614 | -74.35561 | 37185 ft | 346 kts | 272° |
| 2026-04-22 12:09 | 39.48848 | -74.38606 | 37192 ft | 338 kts | 289° |
| 2026-04-22 12:09 | 39.49829 | -74.41357 | 37192 ft | 336 kts | 306° |
| 2026-04-22 12:10 | 39.51444 | -74.43528 | 37192 ft | 338 kts | 323° |
| 2026-04-22 12:10 | 39.53557 | -74.44901 | 37192 ft | 345 kts | 341° |
| 2026-04-22 12:10 | 39.55966 | -74.45270 | 37192 ft | 356 kts | 359° |
| 2026-04-22 12:10 | 39.58372 | -74.44538 | 37195 ft | 369 kts | 19° |
| 2026-04-22 12:11 | 39.60533 | -74.42627 | 37194 ft | 386 kts | 41° |
| 2026-04-22 12:11 | 39.62045 | -74.39682 | 37189 ft | 403 kts | 64° |
| 2026-04-22 12:11 | 39.63436 | -74.32498 | 37195 ft | 413 kts | 73° |
| 2026-04-22 12:12 | 39.63688 | -74.25065 | 37196 ft | 424 kts | 107° |
| 2026-04-22 12:12 | 39.62320 | -74.21686 | 37193 ft | 426 kts | 132° |
| 2026-04-22 12:12 | 39.60083 | -74.19237 | 37189 ft | 420 kts | 157° |
| 2026-04-22 12:13 | 39.57360 | -74.18108 | 37191 ft | 407 kts | 182° |
| 2026-04-22 12:13 | 39.54617 | -74.18439 | 37185 ft | 389 kts | 207° |
| 2026-04-22 12:13 | 39.52339 | -74.20102 | 37186 ft | 369 kts | 231° |
| 2026-04-22 12:13 | 39.50890 | -74.22721 | 37191 ft | 353 kts | 253° |
| 2026-04-22 12:14 | 39.49622 | -74.28783 | 37192 ft | 349 kts | 263° |
| 2026-04-22 12:14 | 39.48640 | -74.34939 | 37187 ft | 348 kts | 268° |
| 2026-04-22 12:15 | 39.48721 | -74.38013 | 37190 ft | 339 kts | 286° |
| 2026-04-22 12:15 | 39.49568 | -74.40830 | 37193 ft | 336 kts | 303° |
| 2026-04-22 12:15 | 39.51072 | -74.43135 | 37192 ft | 337 kts | 319° |
| 2026-04-22 12:15 | 39.53092 | -74.44695 | 37193 ft | 343 kts | 336° |
| 2026-04-22 12:16 | 39.55427 | -74.45301 | 37193 ft | 353 kts | 355° |
| 2026-04-22 12:16 | 39.57885 | -74.44808 | 37194 ft | 366 kts | 14° |
| 2026-04-22 12:16 | 39.60132 | -74.43141 | 37193 ft | 382 kts | 36° |
| 2026-04-22 12:16 | 39.61808 | -74.40396 | 37192 ft | 399 kts | 59° |
| 2026-04-22 12:17 | 39.62674 | -74.36915 | 37205 ft | 410 kts | 72° |
| 2026-04-22 12:17 | 39.63305 | -74.33296 | 37193 ft | 413 kts | 73° |
| 2026-04-22 12:17 | 39.63859 | -74.25883 | 37187 ft | 423 kts | 102° |
| 2026-04-22 12:18 | 39.62725 | -74.22364 | 37192 ft | 426 kts | 126° |
| 2026-04-22 12:18 | 39.60655 | -74.19665 | 37190 ft | 421 kts | 151° |
| 2026-04-22 12:18 | 39.58006 | -74.18218 | 37187 ft | 410 kts | 176° |
| 2026-04-22 12:18 | 39.55220 | -74.18223 | 37186 ft | 393 kts | 201° |
| 2026-04-22 12:19 | 39.52800 | -74.19612 | 37189 ft | 374 kts | 226° |
| 2026-04-22 12:19 | 39.51144 | -74.22070 | 37189 ft | 355 kts | 250° |
| 2026-04-22 12:19 | 39.49643 | -74.28063 | 37189 ft | 350 kts | 262° |
| 2026-04-22 12:20 | 39.48652 | -74.34202 | 37190 ft | 349 kts | 265° |
| 2026-04-22 12:20 | 39.48591 | -74.37283 | 37185 ft | 340 kts | 283° |
| 2026-04-22 12:20 | 39.49291 | -74.40167 | 37192 ft | 336 kts | 299° |
| 2026-04-22 12:21 | 39.50645 | -74.42614 | 37191 ft | 336 kts | 315° |
| 2026-04-22 12:21 | 39.52544 | -74.44384 | 37192 ft | 340 kts | 332° |
| 2026-04-22 12:21 | 39.54054 | -74.45083 | 37193 ft | 345 kts | 344° |
| 2026-04-22 12:21 | 39.56478 | -74.45247 | 37193 ft | 356 kts | 3° |
| 2026-04-22 12:22 | 39.58879 | -74.44258 | 37191 ft | 371 kts | 23° |
| 2026-04-22 12:22 | 39.60922 | -74.42127 | 37192 ft | 388 kts | 45° |
| 2026-04-22 12:22 | 39.62256 | -74.39024 | 37192 ft | 404 kts | 68° |
| 2026-04-22 12:22 | 39.62957 | -74.35462 | 37193 ft | 410 kts | 72° |
| 2026-04-22 12:23 | 39.64031 | -74.28224 | 37180 ft | 416 kts | 86° |
| 2026-04-22 12:23 | 39.63569 | -74.24502 | 37194 ft | 423 kts | 111° |
| 2026-04-22 12:23 | 39.62045 | -74.21261 | 37192 ft | 423 kts | 136° |
| 2026-04-22 12:24 | 39.59704 | -74.19028 | 37184 ft | 416 kts | 161° |
| 2026-04-22 12:24 | 39.56952 | -74.18157 | 37185 ft | 402 kts | 186° |
| 2026-04-22 12:24 | 39.54270 | -74.18744 | 37185 ft | 384 kts | 211° |
| 2026-04-22 12:24 | 39.52128 | -74.20611 | 37186 ft | 364 kts | 236° |
| 2026-04-22 12:25 | 39.50801 | -74.23312 | 37188 ft | 352 kts | 254° |
| 2026-04-22 12:25 | 39.50027 | -74.26301 | 37190 ft | 349 kts | 259° |
| 2026-04-22 12:25 | 39.48912 | -74.32412 | 37188 ft | 348 kts | 263° |
| 2026-04-22 12:26 | 39.48798 | -74.38516 | 37192 ft | 337 kts | 290° |
| 2026-04-22 12:26 | 39.49795 | -74.41235 | 37191 ft | 335 kts | 306° |
| 2026-04-22 12:26 | 39.51404 | -74.43411 | 37190 ft | 337 kts | 323° |
| 2026-04-22 12:27 | 39.53472 | -74.44787 | 37193 ft | 343 kts | 340° |
| 2026-04-22 12:27 | 39.55859 | -74.45196 | 37192 ft | 353 kts | 359° |
| 2026-04-22 12:27 | 39.58291 | -74.44468 | 37191 ft | 368 kts | 19° |
| 2026-04-22 12:27 | 39.60440 | -74.42575 | 37191 ft | 384 kts | 40° |
| 2026-04-22 12:28 | 39.61948 | -74.39650 | 37194 ft | 401 kts | 64° |
| 2026-04-22 12:28 | 39.62712 | -74.36128 | 37196 ft | 409 kts | 72° |
| 2026-04-22 12:28 | 39.63862 | -74.28860 | 37184 ft | 415 kts | 81° |
| 2026-04-22 12:29 | 39.63604 | -74.25126 | 37189 ft | 422 kts | 107° |
| 2026-04-22 12:29 | 39.62255 | -74.21756 | 37188 ft | 423 kts | 131° |
| 2026-04-22 12:29 | 39.60031 | -74.19312 | 37182 ft | 418 kts | 157° |
| 2026-04-22 12:29 | 39.57320 | -74.18186 | 37184 ft | 405 kts | 182° |
| 2026-04-22 12:30 | 39.52323 | -74.20185 | 37186 ft | 368 kts | 232° |
| 2026-04-22 12:30 | 39.50883 | -74.22801 | 37189 ft | 352 kts | 253° |
| 2026-04-22 12:31 | 39.49500 | -74.28827 | 37187 ft | 349 kts | 262° |
| 2026-04-22 12:31 | 39.48564 | -74.34975 | 37185 ft | 346 kts | 269° |
| 2026-04-22 12:31 | 39.48702 | -74.37992 | 37191 ft | 338 kts | 287° |
| 2026-04-22 12:32 | 39.49572 | -74.40788 | 37192 ft | 335 kts | 303° |
| 2026-04-22 12:32 | 39.53088 | -74.44638 | 37194 ft | 342 kts | 337° |
| 2026-04-22 12:32 | 39.55442 | -74.45221 | 37190 ft | 351 kts | 355° |
| 2026-04-22 12:33 | 39.57882 | -74.44691 | 37192 ft | 365 kts | 15° |
| 2026-04-22 12:33 | 39.60108 | -74.43001 | 37188 ft | 381 kts | 37° |
| 2026-04-22 12:33 | 39.61756 | -74.40246 | 37191 ft | 397 kts | 60° |
| 2026-04-22 12:33 | 39.62606 | -74.36782 | 37200 ft | 408 kts | 71° |
| 2026-04-22 12:34 | 39.63808 | -74.29542 | 37190 ft | 412 kts | 77° |
| 2026-04-22 12:34 | 39.63752 | -74.25803 | 37185 ft | 420 kts | 102° |
| 2026-04-22 12:34 | 39.62588 | -74.22328 | 37187 ft | 423 kts | 127° |
| 2026-04-22 12:35 | 39.60501 | -74.19690 | 37183 ft | 419 kts | 152° |
| 2026-04-22 12:35 | 39.57842 | -74.18311 | 37186 ft | 408 kts | 177° |
| 2026-04-22 12:35 | 39.55080 | -74.18388 | 37183 ft | 391 kts | 202° |
| 2026-04-22 12:35 | 39.52720 | -74.19817 | 37183 ft | 372 kts | 227° |
| 2026-04-22 12:36 | 39.51108 | -74.22291 | 37186 ft | 354 kts | 250° |
| 2026-04-22 12:36 | 39.50234 | -74.25237 | 37191 ft | 350 kts | 259° |
| 2026-04-22 12:36 | 39.49078 | -74.31346 | 37189 ft | 349 kts | 263° |
| 2026-04-22 12:37 | 39.48617 | -74.37498 | 37188 ft | 339 kts | 284° |
| 2026-04-22 12:37 | 39.49377 | -74.40356 | 37189 ft | 336 kts | 300° |
| 2026-04-22 12:37 | 39.50776 | -74.42748 | 37192 ft | 335 kts | 317° |
| 2026-04-22 12:38 | 39.52710 | -74.44443 | 37191 ft | 339 kts | 334° |
| 2026-04-22 12:38 | 39.55009 | -74.45217 | 37192 ft | 348 kts | 352° |
| 2026-04-22 12:38 | 39.57452 | -74.44909 | 37191 ft | 360 kts | 11° |
| 2026-04-22 12:38 | 39.59735 | -74.43450 | 37193 ft | 376 kts | 32° |
| 2026-04-22 12:39 | 39.61523 | -74.40894 | 37191 ft | 392 kts | 55° |
| 2026-04-22 12:39 | 39.63139 | -74.33958 | 37190 ft | 408 kts | 73° |
| 2026-04-22 12:40 | 39.63896 | -74.26639 | 37180 ft | 417 kts | 97° |
| 2026-04-22 12:40 | 39.62991 | -74.23115 | 37187 ft | 422 kts | 121° |
| 2026-04-22 12:40 | 39.61098 | -74.20248 | 37181 ft | 419 kts | 146° |
| 2026-04-22 12:40 | 39.58544 | -74.18565 | 37182 ft | 409 kts | 172° |
| 2026-04-22 12:41 | 39.55775 | -74.18314 | 37182 ft | 394 kts | 197° |
| 2026-04-22 12:41 | 39.53278 | -74.19478 | 37183 ft | 374 kts | 222° |
| 2026-04-22 12:41 | 39.51482 | -74.21765 | 37187 ft | 357 kts | 244° |
| 2026-04-22 12:41 | 39.50434 | -74.24623 | 37188 ft | 349 kts | 258° |
| 2026-04-22 12:42 | 39.49748 | -74.27638 | 37186 ft | 348 kts | 261° |
| 2026-04-22 12:42 | 39.48704 | -74.33754 | 37188 ft | 348 kts | 264° |
| 2026-04-22 12:42 | 39.48544 | -74.36829 | 37185 ft | 339 kts | 281° |
| 2026-04-22 12:43 | 39.49155 | -74.39741 | 37191 ft | 335 kts | 297° |
| 2026-04-22 12:43 | 39.50431 | -74.42244 | 37194 ft | 334 kts | 313° |
| 2026-04-22 12:43 | 39.52264 | -74.44098 | 37193 ft | 338 kts | 330° |
| 2026-04-22 12:43 | 39.54506 | -74.45077 | 37193 ft | 346 kts | 348° |
| 2026-04-22 12:44 | 39.56934 | -74.44998 | 37193 ft | 357 kts | 7° |
| 2026-04-22 12:44 | 39.59271 | -74.43755 | 37195 ft | 372 kts | 28° |
| 2026-04-22 12:44 | 39.61152 | -74.41415 | 37187 ft | 389 kts | 51° |
| 2026-04-22 12:44 | 39.62282 | -74.38172 | 37193 ft | 403 kts | 71° |
| 2026-04-22 12:45 | 39.62940 | -74.34619 | 37187 ft | 407 kts | 72° |
| 2026-04-22 12:45 | 39.63868 | -74.27338 | 37173 ft | 415 kts | 92° |
| 2026-04-22 12:45 | 39.63150 | -74.23698 | 37188 ft | 421 kts | 117° |
| 2026-04-22 12:46 | 39.61412 | -74.20670 | 37181 ft | 420 kts | 142° |
| 2026-04-22 12:46 | 39.58938 | -74.18752 | 37177 ft | 412 kts | 167° |
| 2026-04-22 12:46 | 39.56164 | -74.18246 | 37181 ft | 397 kts | 192° |
| 2026-04-22 12:46 | 39.53583 | -74.19181 | 37179 ft | 378 kts | 217° |
| 2026-04-22 12:47 | 39.51649 | -74.21313 | 37181 ft | 359 kts | 242° |
| 2026-04-22 12:47 | 39.50535 | -74.24137 | 37188 ft | 349 kts | 257° |
| 2026-04-22 12:47 | 39.49841 | -74.27141 | 37185 ft | 348 kts | 261° |
| 2026-04-22 12:48 | 39.48794 | -74.33213 | 37188 ft | 348 kts | 264° |
| 2026-04-22 12:48 | 39.48515 | -74.36302 | 37184 ft | 341 kts | 278° |
| 2026-04-22 12:48 | 39.48992 | -74.39265 | 37191 ft | 335 kts | 294° |
| 2026-04-22 12:48 | 39.50154 | -74.41856 | 37189 ft | 334 kts | 310° |
| 2026-04-22 12:49 | 39.51898 | -74.43839 | 37192 ft | 337 kts | 327° |
| 2026-04-22 12:49 | 39.54079 | -74.44989 | 37191 ft | 344 kts | 345° |
| 2026-04-22 12:49 | 39.56496 | -74.45109 | 37194 ft | 355 kts | 4° |
| 2026-04-22 12:49 | 39.58875 | -74.44085 | 37193 ft | 369 kts | 24° |
| 2026-04-22 12:50 | 39.60881 | -74.41923 | 37188 ft | 386 kts | 46° |
| 2026-04-22 12:50 | 39.62162 | -74.38801 | 37187 ft | 401 kts | 69° |
| 2026-04-22 12:50 | 39.62840 | -74.35259 | 37189 ft | 406 kts | 72° |
| 2026-04-22 12:51 | 39.63884 | -74.28011 | 37174 ft | 414 kts | 87° |
| 2026-04-22 12:51 | 39.63374 | -74.24332 | 37188 ft | 420 kts | 112° |
| 2026-04-22 12:51 | 39.61831 | -74.21182 | 37182 ft | 421 kts | 137° |
| 2026-04-22 12:51 | 39.59476 | -74.19021 | 37178 ft | 414 kts | 162° |
| 2026-04-22 12:52 | 39.56727 | -74.18227 | 37178 ft | 400 kts | 187° |
| 2026-04-22 12:52 | 39.54069 | -74.18889 | 37181 ft | 382 kts | 212° |
| 2026-04-22 12:52 | 39.51973 | -74.20817 | 37182 ft | 363 kts | 237° |
| 2026-04-22 12:52 | 39.50707 | -74.23549 | 37186 ft | 350 kts | 256° |
| 2026-04-22 12:53 | 39.49966 | -74.26543 | 37184 ft | 349 kts | 260° |
| 2026-04-22 12:53 | 39.48878 | -74.32657 | 37186 ft | 348 kts | 264° |
| 2026-04-22 12:53 | 39.48516 | -74.35739 | 37180 ft | 343 kts | 275° |
| 2026-04-22 12:54 | 39.48858 | -74.38744 | 37190 ft | 336 kts | 291° |
| 2026-04-22 12:54 | 39.49901 | -74.41427 | 37189 ft | 334 kts | 307° |
| 2026-04-22 12:54 | 39.51547 | -74.43550 | 37191 ft | 336 kts | 324° |
| 2026-04-22 12:54 | 39.53663 | -74.44870 | 37191 ft | 342 kts | 342° |
| 2026-04-22 12:55 | 39.55232 | -74.45203 | 37193 ft | 348 kts | 354° |
| 2026-04-22 12:55 | 39.58451 | -74.44369 | 37193 ft | 365 kts | 20° |
| 2026-04-22 12:55 | 39.60525 | -74.42443 | 37189 ft | 381 kts | 42° |
| 2026-04-22 12:55 | 39.61974 | -74.39511 | 37189 ft | 397 kts | 65° |
| 2026-04-22 12:56 | 39.62714 | -74.36019 | 37195 ft | 404 kts | 72° |
| 2026-04-22 12:56 | 39.63859 | -74.28845 | 37181 ft | 410 kts | 81° |
| 2026-04-22 12:56 | 39.63594 | -74.25147 | 37183 ft | 417 kts | 107° |
| 2026-04-22 12:57 | 39.62238 | -74.21825 | 37185 ft | 419 kts | 132° |
| 2026-04-22 12:57 | 39.60017 | -74.19442 | 37176 ft | 414 kts | 158° |
| 2026-04-22 12:57 | 39.57319 | -74.18382 | 37176 ft | 401 kts | 182° |
| 2026-04-22 12:57 | 39.54615 | -74.18782 | 37180 ft | 384 kts | 208° |
| 2026-04-22 12:58 | 39.52396 | -74.20504 | 37177 ft | 365 kts | 233° |
| 2026-04-22 12:58 | 39.50940 | -74.23093 | 37182 ft | 352 kts | 251° |
| 2026-04-22 12:58 | 39.50108 | -74.26040 | 37186 ft | 348 kts | 259° |
| 2026-04-22 12:59 | 39.48973 | -74.32114 | 37187 ft | 347 kts | 263° |
| 2026-04-22 12:59 | 39.48730 | -74.38171 | 37175 ft | 336 kts | 288° |
| 2026-04-22 12:59 | 39.49648 | -74.40922 | 37176 ft | 333 kts | 304° |
| 2026-04-22 13:00 | 39.51191 | -74.43148 | 37177 ft | 334 kts | 321° |
| 2026-04-22 13:00 | 39.53228 | -74.44613 | 37177 ft | 339 kts | 339° |
| 2026-04-22 13:00 | 39.55582 | -74.45113 | 37178 ft | 349 kts | 357° |
| 2026-04-22 13:00 | 39.57996 | -74.44505 | 37175 ft | 362 kts | 17° |
| 2026-04-22 13:01 | 39.60165 | -74.42736 | 37177 ft | 378 kts | 39° |
| 2026-04-22 13:01 | 39.61721 | -74.39919 | 37176 ft | 395 kts | 62° |
| 2026-04-22 13:01 | 39.62517 | -74.36457 | 37184 ft | 404 kts | 71° |
| 2026-04-22 13:02 | 39.63690 | -74.29337 | 37175 ft | 408 kts | 78° |
| 2026-04-22 13:02 | 39.63580 | -74.25643 | 37176 ft | 416 kts | 103° |
| 2026-04-22 13:02 | 39.62366 | -74.22234 | 37177 ft | 419 kts | 129° |
| 2026-04-22 13:02 | 39.60243 | -74.19692 | 37173 ft | 415 kts | 154° |
| 2026-04-22 13:03 | 39.57582 | -74.18435 | 37172 ft | 404 kts | 179° |
| 2026-04-22 13:03 | 39.54856 | -74.18634 | 37172 ft | 387 kts | 204° |
| 2026-04-22 13:03 | 39.52537 | -74.20194 | 37173 ft | 368 kts | 230° |
| 2026-04-22 13:03 | 39.51009 | -74.22734 | 37173 ft | 352 kts | 250° |
| 2026-04-22 13:04 | 39.50160 | -74.25672 | 37178 ft | 348 kts | 259° |
| 2026-04-22 13:04 | 39.49022 | -74.31753 | 37175 ft | 347 kts | 263° |
| 2026-04-22 13:05 | 39.48683 | -74.37859 | 37173 ft | 336 kts | 287° |
| 2026-04-22 13:05 | 39.49526 | -74.40648 | 37177 ft | 333 kts | 303° |
| 2026-04-22 13:05 | 39.50979 | -74.42921 | 37175 ft | 334 kts | 319° |
| 2026-04-22 13:05 | 39.52271 | -74.44075 | 37174 ft | 337 kts | 331° |
| 2026-04-22 13:06 | 39.54510 | -74.45023 | 37174 ft | 344 kts | 349° |
| 2026-04-22 13:06 | 39.56928 | -74.44913 | 37177 ft | 356 kts | 8° |
| 2026-04-22 13:06 | 39.59923 | -74.43001 | 37179 ft | 376 kts | 36° |
| 2026-04-22 13:06 | 39.61126 | -74.41279 | 37178 ft | 387 kts | 51° |
| 2026-04-22 13:07 | 39.62217 | -74.38035 | 37184 ft | 401 kts | 71° |
| 2026-04-22 13:07 | 39.63450 | -74.30967 | 37178 ft | 406 kts | 73° |
| 2026-04-22 13:07 | 39.63771 | -74.27313 | 37171 ft | 413 kts | 92° |
| 2026-04-22 13:08 | 39.63047 | -74.23694 | 37183 ft | 419 kts | 117° |
| 2026-04-22 13:08 | 39.61306 | -74.20702 | 37180 ft | 418 kts | 142° |
| 2026-04-22 13:08 | 39.58832 | -74.18819 | 37172 ft | 410 kts | 168° |
| 2026-04-22 13:08 | 39.56068 | -74.18352 | 37172 ft | 395 kts | 193° |
| 2026-04-22 13:09 | 39.53502 | -74.19326 | 37170 ft | 377 kts | 218° |
| 2026-04-22 13:09 | 39.51596 | -74.21485 | 37171 ft | 358 kts | 242° |
| 2026-04-22 13:09 | 39.50493 | -74.24307 | 37179 ft | 348 kts | 257° |
| 2026-04-22 13:10 | 39.49249 | -74.30360 | 37173 ft | 347 kts | 263° |
| 2026-04-22 13:10 | 39.48528 | -74.36453 | 37169 ft | 340 kts | 278° |
| 2026-04-22 13:10 | 39.49041 | -74.39395 | 37174 ft | 334 kts | 295° |
| 2026-04-22 13:11 | 39.50237 | -74.41956 | 37175 ft | 333 kts | 311° |
| 2026-04-22 13:11 | 39.52003 | -74.43889 | 37176 ft | 336 kts | 328° |
| 2026-04-22 13:11 | 39.54200 | -74.44974 | 37175 ft | 343 kts | 346° |
| 2026-04-22 13:11 | 39.56609 | -74.45024 | 37176 ft | 354 kts | 5° |
| 2026-04-22 13:12 | 39.58962 | -74.43926 | 37177 ft | 368 kts | 26° |
| 2026-04-22 13:12 | 39.60920 | -74.41711 | 37176 ft | 384 kts | 48° |
| 2026-04-22 13:12 | 39.62138 | -74.38581 | 37180 ft | 398 kts | 70° |
| 2026-04-22 13:13 | 39.63402 | -74.31520 | 37181 ft | 404 kts | 73° |
| 2026-04-22 13:13 | 39.63820 | -74.27904 | 37169 ft | 410 kts | 88° |
| 2026-04-22 13:13 | 39.63268 | -74.24270 | 37182 ft | 416 kts | 113° |
| 2026-04-22 13:13 | 39.61667 | -74.21163 | 37177 ft | 416 kts | 139° |
| 2026-04-22 13:14 | 39.59286 | -74.19111 | 37171 ft | 409 kts | 164° |
| 2026-04-22 13:14 | 39.56553 | -74.18446 | 37172 ft | 396 kts | 189° |
| 2026-04-22 13:14 | 39.53948 | -74.19229 | 37172 ft | 377 kts | 215° |
| 2026-04-22 13:14 | 39.51936 | -74.21236 | 37176 ft | 360 kts | 238° |
| 2026-04-22 13:15 | 39.50650 | -74.23940 | 37175 ft | 349 kts | 255° |
| 2026-04-22 13:15 | 39.49330 | -74.29899 | 37175 ft | 346 kts | 262° |
| 2026-04-22 13:16 | 39.48512 | -74.35998 | 37166 ft | 339 kts | 276° |
| 2026-04-22 13:16 | 39.48931 | -74.38958 | 37175 ft | 333 kts | 293° |
| 2026-04-22 13:16 | 39.50038 | -74.41568 | 37177 ft | 331 kts | 309° |
| 2026-04-22 13:16 | 39.51729 | -74.43591 | 37174 ft | 334 kts | 326° |
| 2026-04-22 13:17 | 39.53867 | -74.44788 | 37175 ft | 340 kts | 344° |
| 2026-04-22 13:17 | 39.56249 | -74.44972 | 37176 ft | 350 kts | 3° |
| 2026-04-22 13:17 | 39.58611 | -74.44022 | 37177 ft | 364 kts | 23° |
| 2026-04-22 13:17 | 39.60619 | -74.41931 | 37176 ft | 380 kts | 45° |
| 2026-04-22 13:18 | 39.61926 | -74.38893 | 37177 ft | 396 kts | 68° |
| 2026-04-22 13:18 | 39.63207 | -74.31847 | 37179 ft | 403 kts | 73° |
| 2026-04-22 13:18 | 39.63674 | -74.28247 | 37168 ft | 409 kts | 85° |
| 2026-04-22 13:19 | 39.63241 | -74.24594 | 37183 ft | 416 kts | 111° |
| 2026-04-22 13:19 | 39.61739 | -74.21405 | 37178 ft | 417 kts | 136° |
| 2026-04-22 13:19 | 39.59420 | -74.19225 | 37171 ft | 410 kts | 161° |
| 2026-04-22 13:19 | 39.56694 | -74.18409 | 37170 ft | 397 kts | 187° |
| 2026-04-22 13:20 | 39.54055 | -74.19050 | 37169 ft | 380 kts | 212° |
| 2026-04-22 13:20 | 39.51965 | -74.20966 | 37172 ft | 360 kts | 237° |
| 2026-04-22 13:20 | 39.50688 | -74.23671 | 37176 ft | 349 kts | 255° |
| 2026-04-22 13:21 | 39.49364 | -74.29668 | 37175 ft | 346 kts | 262° |
| 2026-04-22 13:21 | 39.48514 | -74.35739 | 37165 ft | 341 kts | 275° |
| 2026-04-22 13:21 | 39.48857 | -74.38722 | 37174 ft | 334 kts | 291° |
| 2026-04-22 13:22 | 39.49906 | -74.41381 | 37174 ft | 332 kts | 308° |
| 2026-04-22 13:22 | 39.51556 | -74.43464 | 37173 ft | 333 kts | 325° |
| 2026-04-22 13:22 | 39.53659 | -74.44748 | 37175 ft | 339 kts | 342° |
| 2026-04-22 13:22 | 39.56031 | -74.45041 | 37175 ft | 349 kts | 1° |
| 2026-04-22 13:23 | 39.58410 | -74.44199 | 37175 ft | 363 kts | 21° |
| 2026-04-22 13:23 | 39.60472 | -74.42227 | 37176 ft | 379 kts | 43° |
| 2026-04-22 13:23 | 39.61875 | -74.39270 | 37178 ft | 395 kts | 66° |
| 2026-04-22 13:24 | 39.63194 | -74.32240 | 37176 ft | 403 kts | 73° |
| 2026-04-22 13:24 | 39.63380 | -74.24988 | 37182 ft | 415 kts | 108° |
| 2026-04-22 13:24 | 39.61972 | -74.21718 | 37179 ft | 417 kts | 134° |
| 2026-04-22 13:25 | 39.59721 | -74.19423 | 37171 ft | 411 kts | 159° |
| 2026-04-22 13:25 | 39.57051 | -74.18465 | 37171 ft | 399 kts | 184° |
| 2026-04-22 13:25 | 39.54374 | -74.18945 | 37171 ft | 382 kts | 209° |
| 2026-04-22 13:25 | 39.52199 | -74.20733 | 37173 ft | 363 kts | 234° |
| 2026-04-22 13:26 | 39.50811 | -74.23373 | 37174 ft | 351 kts | 253° |
| 2026-04-22 13:26 | 39.49424 | -74.29358 | 37174 ft | 347 kts | 262° |
| 2026-04-22 13:27 | 39.48523 | -74.35477 | 37166 ft | 342 kts | 273° |
| 2026-04-22 13:27 | 39.48801 | -74.38480 | 37172 ft | 335 kts | 290° |
| 2026-04-22 13:27 | 39.49792 | -74.41177 | 37174 ft | 332 kts | 306° |
| 2026-04-22 13:27 | 39.51388 | -74.43328 | 37174 ft | 333 kts | 323° |
| 2026-04-22 13:28 | 39.53454 | -74.44696 | 37176 ft | 338 kts | 341° |
| 2026-04-22 13:28 | 39.55809 | -74.45090 | 37176 ft | 348 kts | 359° |
| 2026-04-22 13:28 | 39.58201 | -74.44365 | 37176 ft | 361 kts | 19° |
| 2026-04-22 13:28 | 39.60284 | -74.42531 | 37177 ft | 377 kts | 40° |
| 2026-04-22 13:29 | 39.61788 | -74.39634 | 37177 ft | 393 kts | 64° |
| 2026-04-22 13:29 | 39.63147 | -74.32693 | 37175 ft | 403 kts | 73° |
| 2026-04-22 13:30 | 39.63527 | -74.25451 | 37180 ft | 414 kts | 105° |
| 2026-04-22 13:30 | 39.62262 | -74.22099 | 37178 ft | 416 kts | 130° |
| 2026-04-22 13:30 | 39.60110 | -74.19653 | 37173 ft | 411 kts | 155° |
| 2026-04-22 13:30 | 39.57449 | -74.18510 | 37171 ft | 399 kts | 181° |
| 2026-04-22 13:31 | 39.54758 | -74.18825 | 37173 ft | 383 kts | 206° |
| 2026-04-22 13:31 | 39.52516 | -74.20475 | 37174 ft | 364 kts | 231° |
| 2026-04-22 13:31 | 39.51003 | -74.23011 | 37174 ft | 351 kts | 249° |
| 2026-04-22 13:32 | 39.49516 | -74.28931 | 37172 ft | 345 kts | 262° |
| 2026-04-22 13:32 | 39.48555 | -74.35006 | 37171 ft | 342 kts | 270° |
| 2026-04-22 13:32 | 39.48711 | -74.38022 | 37174 ft | 334 kts | 288° |
| 2026-04-22 13:33 | 39.49601 | -74.40766 | 37175 ft | 331 kts | 304° |
| 2026-04-22 13:33 | 39.51114 | -74.42996 | 37174 ft | 331 kts | 321° |
| 2026-04-22 13:33 | 39.53121 | -74.44477 | 37175 ft | 336 kts | 338° |
| 2026-04-22 13:33 | 39.55442 | -74.45005 | 37175 ft | 345 kts | 357° |
| 2026-04-22 13:34 | 39.57832 | -74.44428 | 37175 ft | 358 kts | 17° |
| 2026-04-22 13:34 | 39.59985 | -74.42714 | 37175 ft | 373 kts | 38° |
| 2026-04-22 13:34 | 39.61558 | -74.39973 | 37178 ft | 389 kts | 61° |
| 2026-04-22 13:35 | 39.62974 | -74.33049 | 37179 ft | 401 kts | 73° |
| 2026-04-22 13:35 | 39.63486 | -74.25886 | 37178 ft | 411 kts | 102° |
| 2026-04-22 13:35 | 39.62341 | -74.22481 | 37180 ft | 415 kts | 127° |
| 2026-04-22 13:36 | 39.60272 | -74.19914 | 37173 ft | 412 kts | 153° |
| 2026-04-22 13:36 | 39.57653 | -74.18626 | 37164 ft | 395 kts | 179° |
| 2026-04-22 13:36 | 39.55051 | -74.18834 | 37159 ft | 355 kts | 206° |
| 2026-04-22 13:36 | 39.53028 | -74.20230 | 37086 ft | 311 kts | 231° |
| 2026-04-22 13:37 | 39.51764 | -74.22294 | 36906 ft | 277 kts | 254° |
| 2026-04-22 13:37 | 39.51311 | -74.24566 | 36691 ft | 248 kts | 277° |
| 2026-04-22 13:37 | 39.51634 | -74.26632 | 36430 ft | 226 kts | 302° |
| 2026-04-22 13:37 | 39.52628 | -74.28104 | 36081 ft | 215 kts | 330° |
| 2026-04-22 13:38 | 39.54063 | -74.28512 | 35562 ft | 214 kts | 15° |
| 2026-04-22 13:38 | 39.55917 | -74.26753 | 22838 ft | 320 kts | 15° |
| 2026-04-22 13:38 | 39.56218 | -74.26590 | 21763 ft | 0 kts | 14° |